Latest Weather Observations for St Kilda Harbour RMYS

IDV60801

Issued at 10:34 am EST Monday 21 August 2017 (issued every 30 minutes, with the page automatically refreshed every 10 minutes)

About weather observations | Map of weather stations | Latest weather observations for VIC | Other Formats
Station Details ID: 086220 Name: ST KILDA HARBOUR - RMYS Lat: -37.86 Lon: 144.96 Height: 6.4 m
Data from the previous 72 hours. | See also: Recent months for locations in Victoria
Date/Time
EST
Temp
°C
App
Temp
°C
Dew
Point
°C
Rel
Hum
%
Delta-T
°C
Wind Press
QNH
hPa
Press
MSL
hPa
Rain since
9am
mm
Dir  Spd
km/h
Gust
km/h
Spd
kts
Gust
kts
21/10:30am - - - - - NNE 13 24 7 13 - - -
21/10:00am - - - - - NNE 13 17 7 9 - - -
21/09:30am - - - - - N 15 20 8 11 - - -
21/09:00am - - - - - N 17 26 9 14 - - -
21/08:30am - - - - - N 17 24 9 13 - - -
21/08:00am - - - - - N 22 32 12 17 - - -
21/07:30am - - - - - N 28 37 15 20 - - -
21/07:00am - - - - - N 24 35 13 19 - - -
21/06:30am - - - - - NNE 13 19 7 10 - - -
21/06:00am - - - - - NNE 15 19 8 10 - - -
21/05:30am - - - - - NNE 13 20 7 11 - - -
21/05:00am - - - - - NNE 13 19 7 10 - - -
21/04:30am - - - - - NNE 13 17 7 9 - - -
21/04:00am - - - - - NNE 11 15 6 8 - - -
21/03:30am - - - - - NNE 7 11 4 6 - - -
21/03:00am - - - - - NNE 9 15 5 8 - - -
21/02:30am - - - - - NNE 9 13 5 7 - - -
21/02:00am - - - - - NNE 9 11 5 6 - - -
21/01:30am - - - - - NNE 7 11 4 6 - - -
21/01:00am - - - - - NNE 7 9 4 5 - - -
21/12:30am - - - - - NNE 9 13 5 7 - - -
21/12:00am - - - - - NE 7 9 4 5 - - -
 
Date/Time
EST
Temp
°C
App
Temp
°C
Dew
Point
°C
Rel
Hum
%
Delta-T
°C
Wind Press
QNH
hPa
Press
MSL
hPa
Rain since
9am
mm
Dir  Spd
km/h
Gust
km/h
Spd
kts
Gust
kts
20/11:30pm - - - - - NE 7 11 4 6 - - -
20/11:00pm - - - - - NNE 11 17 6 9 - - -
20/10:30pm - - - - - NNE 11 15 6 8 - - -
20/10:00pm - - - - - NE 11 17 6 9 - - -
20/09:30pm - - - - - NE 11 15 6 8 - - -
20/09:00pm - - - - - NE 9 13 5 7 - - -
20/08:30pm - - - - - ENE 7 11 4 6 - - -
20/08:00pm - - - - - E 11 15 6 8 - - -
20/07:30pm - - - - - E 9 13 5 7 - - -
20/07:00pm - - - - - ESE 11 15 6 8 - - -
20/06:30pm - - - - - SSE 15 17 8 9 - - -
20/06:00pm - - - - - S 15 17 8 9 - - -
20/05:30pm - - - - - S 17 19 9 10 - - -
20/05:00pm - - - - - S 17 19 9 10 - - -
20/04:30pm - - - - - S 17 20 9 11 - - -
20/04:00pm - - - - - S 20 22 11 12 - - -
20/03:30pm - - - - - S 20 22 11 12 - - -
20/03:00pm - - - - - S 17 19 9 10 - - -
20/02:30pm - - - - - S 15 17 8 9 - - -
20/02:00pm - - - - - SSW 15 19 8 10 - - -
20/01:30pm - - - - - SSW 15 17 8 9 - - -
20/01:00pm - - - - - SSW 11 13 6 7 - - -
20/12:30pm - - - - - SSW 9 9 5 5 - - -
20/12:00pm - - - - - SSW 9 11 5 6 - - -
20/11:30am - - - - - SSW 7 9 4 5 - - -
20/11:00am - - - - - S 7 9 4 5 - - -
20/10:30am - - - - - S 6 7 3 4 - - -
20/10:00am - - - - - SW 4 6 2 3 - - -
20/09:30am - - - - - WNW 6 7 3 4 - - -
20/09:00am - - - - - N 6 9 3 5 - - -
20/08:30am - - - - - NE 6 7 3 4 - - -
20/08:00am - - - - - NE 6 7 3 4 - - -
20/07:30am - - - - - NNW 9 11 5 6 - - -
20/07:00am - - - - - NNW 7 9 4 5 - - -
20/06:30am - - - - - NNW 4 6 2 3 - - -
20/06:00am - - - - - NNW 9 11 5 6 - - -
20/05:30am - - - - - NNW 6 7 3 4 - - -
20/05:00am - - - - - NW 6 7 3 4 - - -
20/04:30am - - - - - NNE 6 9 3 5 - - -
20/04:00am - - - - - WNW 6 9 3 5 - - -
20/03:30am - - - - - WNW 11 15 6 8 - - -
20/03:00am - - - - - NNW 7 13 4 7 - - -
20/02:30am - - - - - WNW 7 13 4 7 - - -
20/02:00am - - - - - WNW 6 9 3 5 - - -
20/01:30am - - - - - W 13 19 7 10 - - -
20/01:00am - - - - - WSW 20 24 11 13 - - -
20/12:30am - - - - - WSW 22 24 12 13 - - -
20/12:00am - - - - - SW 19 30 10 16 - - -
 
Date/Time
EST
Temp
°C
App
Temp
°C
Dew
Point
°C
Rel
Hum
%
Delta-T
°C
Wind Press
QNH
hPa
Press
MSL
hPa
Rain since
9am
mm
Dir  Spd
km/h
Gust
km/h
Spd
kts
Gust
kts
19/11:30pm - - - - - SW 17 20 9 11 - - -
19/11:00pm - - - - - SW 13 17 7 9 - - -
19/10:30pm - - - - - SW 19 28 10 15 - - -
19/10:00pm - - - - - NNW 2 4 1 2 - - -
19/09:30pm - - - - - E 4 6 2 3 - - -
19/09:00pm - - - - - SE 9 17 5 9 - - -
19/08:30pm - - - - - SE 7 19 4 10 - - -
19/08:00pm - - - - - S 19 24 10 13 - - -
19/07:30pm - - - - - S 15 17 8 9 - - -
19/07:00pm - - - - - S 19 22 10 12 - - -
19/06:30pm - - - - - SSW 24 28 13 15 - - -
19/06:00pm - - - - - SSW 22 26 12 14 - - -
19/05:30pm - - - - - SSW 26 32 14 17 - - -
19/05:00pm - - - - - SSW 7 11 4 6 - - -
19/04:30pm - - - - - SW 9 9 5 5 - - -
19/04:00pm - - - - - SW 9 11 5 6 - - -
19/03:30pm - - - - - SW 7 9 4 5 - - -
19/03:00pm - - - - - WSW 11 13 6 7 - - -
19/02:30pm - - - - - WSW 11 15 6 8 - - -
19/02:00pm - - - - - SW 7 11 4 6 - - -
19/01:30pm - - - - - WSW 17 20 9 11 - - -
19/01:00pm - - - - - WSW 11 15 6 8 - - -
19/12:30pm - - - - - SW 9 11 5 6 - - -
19/12:00pm - - - - - SW 17 20 9 11 - - -
19/11:30am - - - - - SW 22 32 12 17 - - -
19/11:00am - - - - - WSW 20 24 11 13 - - -
19/10:32am - - - - - SW 22 44 12 24 - - -
19/10:30am - - - - - WSW 19 26 10 14 - - -
19/10:00am - - - - - WSW 20 26 11 14 - - -
19/09:30am - - - - - SW 4 13 2 7 - - -
19/09:00am - - - - - W 13 17 7 9 - - -
19/08:30am - - - - - WSW 20 26 11 14 - - -
19/08:00am - - - - - WSW 26 30 14 16 - - -
19/07:30am - - - - - SE 4 7 2 4 - - -
19/07:00am - - - - - W 22 28 12 15 - - -
19/06:30am - - - - - SW 20 26 11 14 - - -
19/06:00am - - - - - WSW 33 39 18 21 - - -
19/05:30am - - - - - WSW 26 33 14 18 - - -
19/05:00am - - - - - WSW 28 32 15 17 - - -
19/04:30am - - - - - WSW 39 44 21 24 - - -
19/04:00am - - - - - WSW 39 46 21 25 - - -
19/03:30am - - - - - WSW 37 43 20 23 - - -
19/03:00am - - - - - WSW 33 41 18 22 - - -
19/02:30am - - - - - W 32 41 17 22 - - -
19/02:00am - - - - - WSW 33 39 18 21 - - -
19/01:30am - - - - - WSW 37 43 20 23 - - -
19/01:00am - - - - - WSW 32 37 17 20 - - -
19/12:30am - - - - - WSW 41 46 22 25 - - -
19/12:00am - - - - - WSW 39 54 21 29 - - -
 
Date/Time
EST
Temp
°C
App
Temp
°C
Dew
Point
°C
Rel
Hum
%
Delta-T
°C
Wind Press
QNH
hPa
Press
MSL
hPa
Rain since
9am
mm
Dir  Spd
km/h
Gust
km/h
Spd
kts
Gust
kts
18/11:37pm - - - - - WSW 32 54 17 29 - - -
18/11:30pm - - - - - WSW 30 37 16 20 - - -
18/11:00pm - - - - - WSW 32 41 17 22 - - -
18/10:30pm - - - - - WSW 35 48 19 26 - - -
18/10:00pm - - - - - WSW 35 41 19 22 - - -
18/09:30pm - - - - - WSW 43 52 23 28 - - -
18/09:00pm - - - - - W 32 41 17 22 - - -
18/08:30pm - - - - - WSW 32 37 17 20 - - -
18/08:00pm - - - - - WSW 37 43 20 23 - - -
18/07:43pm - - - - - WSW 35 56 19 30 - - -
18/07:30pm - - - - - WSW 32 39 17 21 - - -
18/07:00pm - - - - - WSW 35 50 19 27 - - -
18/06:30pm - - - - - WSW 32 39 17 21 - - -
18/06:00pm - - - - - WSW 37 46 20 25 - - -
18/05:30pm - - - - - WSW 35 43 19 23 - - -
18/05:00pm - - - - - WSW 35 44 19 24 - - -
18/04:30pm - - - - - W 37 46 20 25 - - -
18/04:00pm - - - - - WSW 37 46 20 25 - - -
18/03:30pm - - - - - WSW 30 35 16 19 - - -
18/03:00pm - - - - - WSW 37 44 20 24 - - -
18/02:30pm - - - - - WSW 43 65 23 35 - - -
18/02:29pm - - - - - WSW 41 65 22 35 - - -
18/02:00pm - - - - - WSW 35 46 19 25 - - -
18/01:30pm - - - - - W 33 41 18 22 - - -
18/01:00pm - - - - - W 33 41 18 22 - - -
18/12:47pm - - - - - W 50 78 27 42 - - -
18/12:41pm - - - - - WSW 56 80 30 43 - - -
18/12:38pm - - - - - WSW 52 80 28 43 - - -
18/12:36pm - - - - - WSW 46 65 25 35 - - -
18/12:30pm - - - - - WSW 46 57 25 31 - - -
18/12:00pm - - - - - WSW 39 48 21 26 - - -
18/11:30am - - - - - W 44 59 24 32 - - -
18/11:00am - - - - - W 44 56 24 30 - - -

Other Formats:

Comma delimited format used in spreadsheet applications
http://www.bom.gov.au/fwo/IDV60801/IDV60801.95864.axf

JavaScript Object Notation format (JSON) in row-major order
http://www.bom.gov.au/fwo/IDV60801/IDV60801.95864.json